sensor_id;sensor_type;location;lat;lon;timestamp;pressure;altitude;pressure_sealevel;temperature
42119;BMP280;27783;42.782;23.274;2022-12-05T00:01:39;96484.09;;;5.79
42119;BMP280;27783;42.782;23.274;2022-12-05T00:04:11;96482.88;;;5.77
42119;BMP280;27783;42.782;23.274;2022-12-05T00:06:39;96494.09;;;5.77
42119;BMP280;27783;42.782;23.274;2022-12-05T00:09:06;96483.31;;;5.79
42119;BMP280;27783;42.782;23.274;2022-12-05T00:11:36;96484.81;;;5.80
42119;BMP280;27783;42.782;23.274;2022-12-05T00:14:04;96485.47;;;5.77
42119;BMP280;27783;42.782;23.274;2022-12-05T00:16:36;96481.00;;;5.77
42119;BMP280;27783;42.782;23.274;2022-12-05T00:19:20;96483.97;;;5.76
42119;BMP280;27783;42.782;23.274;2022-12-05T00:21:45;96482.44;;;5.75
42119;BMP280;27783;42.782;23.274;2022-12-05T00:24:13;96483.22;;;5.75
42119;BMP280;27783;42.782;23.274;2022-12-05T00:26:42;96478.75;;;5.76
42119;BMP280;27783;42.782;23.274;2022-12-05T00:29:08;96489.22;;;5.76
42119;BMP280;27783;42.782;23.274;2022-12-05T00:31:34;96496.94;;;5.72
42119;BMP280;27783;42.782;23.274;2022-12-05T00:34:01;96500.28;;;5.73
42119;BMP280;27783;42.782;23.274;2022-12-05T00:36:29;96495.06;;;5.73
42119;BMP280;27783;42.782;23.274;2022-12-05T00:38:57;96494.31;;;5.72
42119;BMP280;27783;42.782;23.274;2022-12-05T00:41:25;96500.28;;;5.73
42119;BMP280;27783;42.782;23.274;2022-12-05T00:43:52;96490.94;;;5.72
42119;BMP280;27783;42.782;23.274;2022-12-05T00:46:20;96490.50;;;5.70
42119;BMP280;27783;42.782;23.274;2022-12-05T00:48:51;96502.91;;;5.73
42119;BMP280;27783;42.782;23.274;2022-12-05T00:51:20;96495.06;;;5.73
42119;BMP280;27783;42.782;23.274;2022-12-05T00:53:47;96492.69;;;5.68
42119;BMP280;27783;42.782;23.274;2022-12-05T00:56:16;96498.34;;;5.70
42119;BMP280;27783;42.782;23.274;2022-12-05T00:58:42;96490.28;;;5.75
42119;BMP280;27783;42.782;23.274;2022-12-05T01:01:13;96489.75;;;5.69
42119;BMP280;27783;42.782;23.274;2022-12-05T01:03:42;96474.47;;;5.71
42119;BMP280;27783;42.782;23.274;2022-12-05T01:06:09;96464.34;;;5.70
42119;BMP280;27783;42.782;23.274;2022-12-05T01:08:35;96471.44;;;5.69
42119;BMP280;27783;42.782;23.274;2022-12-05T01:11:17;96480.38;;;5.68
42119;BMP280;27783;42.782;23.274;2022-12-05T01:13:44;96471.00;;;5.67
42119;BMP280;27783;42.782;23.274;2022-12-05T01:16:20;96464.56;;;5.65
42119;BMP280;27783;42.782;23.274;2022-12-05T01:18:47;96459.97;;;5.62
42119;BMP280;27783;42.782;23.274;2022-12-05T01:21:13;96453.97;;;5.62
42119;BMP280;27783;42.782;23.274;2022-12-05T01:23:39;96454.13;;;5.65
42119;BMP280;27783;42.782;23.274;2022-12-05T01:26:08;96450.59;;;5.61
42119;BMP280;27783;42.782;23.274;2022-12-05T01:28:35;96455.41;;;5.59
42119;BMP280;27783;42.782;23.274;2022-12-05T01:31:35;96455.41;;;5.59
42119;BMP280;27783;42.782;23.274;2022-12-05T01:34:03;96463.91;;;5.56
42119;BMP280;27783;42.782;23.274;2022-12-05T01:36:31;96454.94;;;5.57
42119;BMP280;27783;42.782;23.274;2022-12-05T01:38:57;96459.75;;;5.55
42119;BMP280;27783;42.782;23.274;2022-12-05T01:41:26;96451.25;;;5.58
42119;BMP280;27783;42.782;23.274;2022-12-05T01:44:01;96454.19;;;5.57
42119;BMP280;27783;42.782;23.274;2022-12-05T01:46:30;96448.84;;;5.53
42119;BMP280;27783;42.782;23.274;2022-12-05T01:51:37;96460.84;;;5.54
42119;BMP280;27783;42.782;23.274;2022-12-05T01:54:04;96453.22;;;5.49
42119;BMP280;27783;42.782;23.274;2022-12-05T01:56:31;96452.88;;;5.51
42119;BMP280;27783;42.782;23.274;2022-12-05T01:59:00;96444.28;;;5.50
42119;BMP280;27783;42.782;23.274;2022-12-05T02:01:26;96442.78;;;5.49
42119;BMP280;27783;42.782;23.274;2022-12-05T02:03:56;96451.34;;;5.50
42119;BMP280;27783;42.782;23.274;2022-12-05T02:06:24;96451.16;;;5.55
42119;BMP280;27783;42.782;23.274;2022-12-05T02:08:53;96449.28;;;5.55
42119;BMP280;27783;42.782;23.274;2022-12-05T02:11:20;96455.41;;;5.59
42119;BMP280;27783;42.782;23.274;2022-12-05T02:14:07;96454.19;;;5.57
42119;BMP280;27783;42.782;23.274;2022-12-05T02:16:42;96449.72;;;5.57
42119;BMP280;27783;42.782;23.274;2022-12-05T02:31:40;96437.97;;;5.51
42119;BMP280;27783;42.782;23.274;2022-12-05T02:34:24;96443.00;;;5.56
42119;BMP280;27783;42.782;23.274;2022-12-05T02:37:15;96439.91;;;5.54
42119;BMP280;27783;42.782;23.274;2022-12-05T02:39:57;96441.09;;;5.57
42119;BMP280;27783;42.782;23.274;2022-12-05T02:45:06;96434.59;;;5.63
42119;BMP280;27783;42.782;23.274;2022-12-05T02:47:43;96441.56;;;5.59
42119;BMP280;27783;42.782;23.274;2022-12-05T02:50:12;96438.84;;;5.55
42119;BMP280;27783;42.782;23.274;2022-12-05T02:52:40;96436.66;;;5.57
42119;BMP280;27783;42.782;23.274;2022-12-05T02:55:08;96431.00;;;5.55
42119;BMP280;27783;42.782;23.274;2022-12-05T02:57:36;96420.53;;;5.55
42119;BMP280;27783;42.782;23.274;2022-12-05T03:00:03;96430.22;;;5.55
42119;BMP280;27783;42.782;23.274;2022-12-05T03:02:32;96434.47;;;5.59
42119;BMP280;27783;42.782;23.274;2022-12-05T03:05:20;96428.50;;;5.59
42119;BMP280;27783;42.782;23.274;2022-12-05T03:07:49;96430.75;;;5.60
42119;BMP280;27783;42.782;23.274;2022-12-05T03:10:17;96436.00;;;5.60
42119;BMP280;27783;42.782;23.274;2022-12-05T03:12:55;96437.97;;;5.63
42119;BMP280;27783;42.782;23.274;2022-12-05T03:15:33;96428.03;;;5.57
42119;BMP280;27783;42.782;23.274;2022-12-05T03:18:16;96429.38;;;5.63
42119;BMP280;27783;42.782;23.274;2022-12-05T03:24:10;96429.03;;;5.64
42119;BMP280;27783;42.782;23.274;2022-12-05T03:29:32;96431.97;;;5.63
42119;BMP280;27783;42.782;23.274;2022-12-05T03:37:34;96431.34;;;5.66
42119;BMP280;27783;42.782;23.274;2022-12-05T03:40:10;96433.63;;;5.67
42119;BMP280;27783;42.782;23.274;2022-12-05T03:42:41;96438.44;;;5.65
42119;BMP280;27783;42.782;23.274;2022-12-05T03:45:33;96431.09;;;5.59
42119;BMP280;27783;42.782;23.274;2022-12-05T03:50:53;96431.88;;;5.59
42119;BMP280;27783;42.782;23.274;2022-12-05T03:53:25;96438.59;;;5.60
42119;BMP280;27783;42.782;23.274;2022-12-05T03:56:16;96434.13;;;5.61
42119;BMP280;27783;42.782;23.274;2022-12-05T03:59:01;96439.38;;;5.61
42119;BMP280;27783;42.782;23.274;2022-12-05T04:01:29;96429.25;;;5.59
42119;BMP280;27783;42.782;23.274;2022-12-05T04:04:00;96435.22;;;5.60
42119;BMP280;27783;42.782;23.274;2022-12-05T04:06:37;96433.72;;;5.59
42119;BMP280;27783;42.782;23.274;2022-12-05T04:09:25;96425.00;;;5.55
42119;BMP280;27783;42.782;23.274;2022-12-05T04:11:59;96419.47;;;5.56
42119;BMP280;27783;42.782;23.274;2022-12-05T04:14:34;96417.69;;;5.60
42119;BMP280;27783;42.782;23.274;2022-12-05T04:17:06;96416.84;;;5.56
42119;BMP280;27783;42.782;23.274;2022-12-05T04:19:52;96420.28;;;5.60
42119;BMP280;27783;42.782;23.274;2022-12-05T04:22:39;96414.66;;;5.58
42119;BMP280;27783;42.782;23.274;2022-12-05T04:25:08;96418.34;;;5.57
42119;BMP280;27783;42.782;23.274;2022-12-05T04:30:57;96412.34;;;5.57
42119;BMP280;27783;42.782;23.274;2022-12-05T04:33:54;96424.75;;;5.60
42119;BMP280;27783;42.782;23.274;2022-12-05T04:36:30;96422.59;;;5.62
42119;BMP280;27783;42.782;23.274;2022-12-05T04:39:09;96421.50;;;5.63
42119;BMP280;27783;42.782;23.274;2022-12-05T04:42:17;96428.50;;;5.59
42119;BMP280;27783;42.782;23.274;2022-12-05T04:44:52;96428.81;;;5.57
42119;BMP280;27783;42.782;23.274;2022-12-05T04:47:20;96428.81;;;5.57
42119;BMP280;27783;42.782;23.274;2022-12-05T04:49:51;96433.63;;;5.67
42119;BMP280;27783;42.782;23.274;2022-12-05T04:52:17;96428.69;;;5.77
42119;BMP280;27783;42.782;23.274;2022-12-05T04:55:19;96432.28;;;5.61
42119;BMP280;27783;42.782;23.274;2022-12-05T04:57:49;96433.81;;;5.62
42119;BMP280;27783;42.782;23.274;2022-12-05T05:00:38;96434.91;;;5.61
42119;BMP280;27783;42.782;23.274;2022-12-05T05:03:22;96438.59;;;5.60
42119;BMP280;27783;42.782;23.274;2022-12-05T05:05:51;96447.56;;;5.59
42119;BMP280;27783;42.782;23.274;2022-12-05T05:08:21;96443.41;;;5.58
42119;BMP280;27783;42.782;23.274;2022-12-05T05:11:12;96454.44;;;5.64
42119;BMP280;27783;42.782;23.274;2022-12-05T05:13:38;96457.81;;;5.64
42119;BMP280;27783;42.782;23.274;2022-12-05T05:16:04;96452.13;;;5.62
42119;BMP280;27783;42.782;23.274;2022-12-05T05:18:30;96457.34;;;5.62
42119;BMP280;27783;42.782;23.274;2022-12-05T05:20:56;96452.13;;;5.62
42119;BMP280;27783;42.782;23.274;2022-12-05T05:23:21;96466.19;;;5.58
42119;BMP280;27783;42.782;23.274;2022-12-05T05:25:53;96459.41;;;5.57
42119;BMP280;27783;42.782;23.274;2022-12-05T05:28:19;96471.41;;;5.58
42119;BMP280;27783;42.782;23.274;2022-12-05T05:30:45;96468.91;;;5.61
42119;BMP280;27783;42.782;23.274;2022-12-05T05:33:11;96475.22;;;5.60
42119;BMP280;27783;42.782;23.274;2022-12-05T05:35:37;96481.97;;;5.61
42119;BMP280;27783;42.782;23.274;2022-12-05T05:38:02;96480.25;;;5.65
42119;BMP280;27783;42.782;23.274;2022-12-05T05:40:28;96478.41;;;5.66
42119;BMP280;27783;42.782;23.274;2022-12-05T05:42:53;96464.22;;;5.66
42119;BMP280;27783;42.782;23.274;2022-12-05T05:45:19;96469.25;;;5.71
42119;BMP280;27783;42.782;23.274;2022-12-05T05:47:47;96481.13;;;5.69
42119;BMP280;27783;42.782;23.274;2022-12-05T05:50:12;96475.56;;;5.70
42119;BMP280;27783;42.782;23.274;2022-12-05T05:52:38;96472.94;;;5.70
42119;BMP280;27783;42.782;23.274;2022-12-05T05:55:05;96471.09;;;5.71
42119;BMP280;27783;42.782;23.274;2022-12-05T05:57:30;96474.81;;;5.70
42119;BMP280;27783;42.782;23.274;2022-12-05T05:59:56;96482.88;;;5.77
42119;BMP280;27783;42.782;23.274;2022-12-05T06:02:22;96492.25;;;5.78
42119;BMP280;27783;42.782;23.274;2022-12-05T06:04:47;96483.63;;;5.77
42119;BMP280;27783;42.782;23.274;2022-12-05T06:07:13;96483.22;;;5.75
42119;BMP280;27783;42.782;23.274;2022-12-05T06:09:38;96475.69;;;5.74
42119;BMP280;27783;42.782;23.274;2022-12-05T06:12:04;96485.47;;;5.77
42119;BMP280;27783;42.782;23.274;2022-12-05T06:14:30;96493.31;;;5.77
42119;BMP280;27783;42.782;23.274;2022-12-05T06:16:55;96488.66;;;5.82
42119;BMP280;27783;42.782;23.274;2022-12-05T06:19:21;96485.16;;;5.78
42119;BMP280;27783;42.782;23.274;2022-12-05T06:21:48;96485.16;;;5.78
42119;BMP280;27783;42.782;23.274;2022-12-05T06:24:14;96491.59;;;5.81
42119;BMP280;27783;42.782;23.274;2022-12-05T06:26:39;96490.91;;;5.83
42119;BMP280;27783;42.782;23.274;2022-12-05T06:29:05;96488.41;;;5.87
42119;BMP280;27783;42.782;23.274;2022-12-05T06:31:30;96488.75;;;5.85
42119;BMP280;27783;42.782;23.274;2022-12-05T06:34:02;96491.91;;;5.91
42119;BMP280;27783;42.782;23.274;2022-12-05T06:36:28;96494.31;;;5.96
42119;BMP280;27783;42.782;23.274;2022-12-05T06:38:58;96494.72;;;5.98
42119;BMP280;27783;42.782;23.274;2022-12-05T06:41:24;96492.44;;;5.96
42119;BMP280;27783;42.782;23.274;2022-12-05T06:43:57;96494.41;;;5.99
42119;BMP280;27783;42.782;23.274;2022-12-05T06:46:23;96495.16;;;5.99
42119;BMP280;27783;42.782;23.274;2022-12-05T06:48:55;96495.91;;;6.00
42119;BMP280;27783;42.782;23.274;2022-12-05T06:51:21;96498.53;;;6.00
42119;BMP280;27783;42.782;23.274;2022-12-05T06:53:47;96499.81;;;6.06
42119;BMP280;27783;42.782;23.274;2022-12-05T06:56:15;96497.22;;;6.06
42119;BMP280;27783;42.782;23.274;2022-12-05T06:58:42;96498.66;;;6.03
42119;BMP280;27783;42.782;23.274;2022-12-05T07:01:17;96491.75;;;6.11
42119;BMP280;27783;42.782;23.274;2022-12-05T07:04:01;96495.16;;;6.11
42119;BMP280;27783;42.782;23.274;2022-12-05T07:06:28;96494.91;;;6.16
42119;BMP280;27783;42.782;23.274;2022-12-05T07:08:54;96497.22;;;6.17
42119;BMP280;27783;42.782;23.274;2022-12-05T07:11:19;96500.03;;;6.13
42119;BMP280;27783;42.782;23.274;2022-12-05T07:13:45;96499.41;;;6.16
42119;BMP280;27783;42.782;23.274;2022-12-05T07:16:10;96502.34;;;6.14
42119;BMP280;27783;42.782;23.274;2022-12-05T07:18:36;96506.91;;;6.17
42119;BMP280;27783;42.782;23.274;2022-12-05T07:21:05;96503.97;;;6.18
42119;BMP280;27783;42.782;23.274;2022-12-05T07:23:31;96503.53;;;6.16
42119;BMP280;27783;42.782;23.274;2022-12-05T07:25:57;96502.44;;;6.17
42119;BMP280;27783;42.782;23.274;2022-12-05T07:28:23;96508.97;;;6.23
42119;BMP280;27783;42.782;23.274;2022-12-05T07:30:58;96503.50;;;6.28
42119;BMP280;27783;42.782;23.274;2022-12-05T07:33:23;96503.63;;;6.32
42119;BMP280;27783;42.782;23.274;2022-12-05T07:35:49;96515.03;;;6.39
42119;BMP280;27783;42.782;23.274;2022-12-05T07:38:14;96517.47;;;6.32
42119;BMP280;27783;42.782;23.274;2022-12-05T07:40:40;96516.16;;;6.38
42119;BMP280;27783;42.782;23.274;2022-12-05T07:43:05;96520.25;;;6.39
42119;BMP280;27783;42.782;23.274;2022-12-05T07:45:33;96513.41;;;6.34
42119;BMP280;27783;42.782;23.274;2022-12-05T07:47:59;96513.53;;;6.38
42119;BMP280;27783;42.782;23.274;2022-12-05T07:50:25;96516.56;;;6.40
42119;BMP280;27783;42.782;23.274;2022-12-05T07:52:51;96517.31;;;6.40
42119;BMP280;27783;42.782;23.274;2022-12-05T07:55:16;96514.41;;;6.42
42119;BMP280;27783;42.782;23.274;2022-12-05T07:57:42;96516.34;;;6.45
42119;BMP280;27783;42.782;23.274;2022-12-05T08:00:08;96512.72;;;6.49
42119;BMP280;27783;42.782;23.274;2022-12-05T08:02:33;96510.97;;;6.53
42119;BMP280;27783;42.782;23.274;2022-12-05T08:04:59;96508.03;;;6.54
42119;BMP280;27783;42.782;23.274;2022-12-05T08:07:24;96515.88;;;6.54
42119;BMP280;27783;42.782;23.274;2022-12-05T08:09:49;96513.69;;;6.56
42119;BMP280;27783;42.782;23.274;2022-12-05T08:12:15;96522.59;;;6.67
42119;BMP280;27783;42.782;23.274;2022-12-05T08:14:40;96521.72;;;6.63
42119;BMP280;27783;42.782;23.274;2022-12-05T08:17:06;96520.88;;;6.59
42119;BMP280;27783;42.782;23.274;2022-12-05T08:19:31;96521.22;;;6.58
42119;BMP280;27783;42.782;23.274;2022-12-05T08:21:57;96526.78;;;6.56
42119;BMP280;27783;42.782;23.274;2022-12-05T08:24:22;96526.09;;;6.59
42119;BMP280;27783;42.782;23.274;2022-12-05T08:26:49;96530.25;;;6.60
42119;BMP280;27783;42.782;23.274;2022-12-05T08:29:15;96526.31;;;6.66
42119;BMP280;27783;42.782;23.274;2022-12-05T08:31:46;96526.31;;;6.66
42119;BMP280;27783;42.782;23.274;2022-12-05T08:34:13;96519.16;;;6.78
42119;BMP280;27783;42.782;23.274;2022-12-05T08:36:39;96518.31;;;6.74
42119;BMP280;27783;42.782;23.274;2022-12-05T08:39:06;96522.59;;;6.67
42119;BMP280;27783;42.782;23.274;2022-12-05T08:41:32;96514.28;;;6.65
42119;BMP280;27783;42.782;23.274;2022-12-05T08:44:00;96506.22;;;6.70
42119;BMP280;27783;42.782;23.274;2022-12-05T08:46:31;96505.13;;;6.71
42119;BMP280;27783;42.782;23.274;2022-12-05T08:48:56;96510.78;;;6.73
42119;BMP280;27783;42.782;23.274;2022-12-05T08:51:22;96513.59;;;6.80
42119;BMP280;27783;42.782;23.274;2022-12-05T08:53:48;96514.28;;;6.65
42119;BMP280;27783;42.782;23.274;2022-12-05T08:56:14;96512.63;;;6.72
42119;BMP280;27783;42.782;23.274;2022-12-05T08:58:39;96508.59;;;6.75
42119;BMP280;27783;42.782;23.274;2022-12-05T09:01:13;96517.44;;;6.70
42119;BMP280;27783;42.782;23.274;2022-12-05T09:03:39;96508.59;;;6.75
42119;BMP280;27783;42.782;23.274;2022-12-05T09:08:35;96508.88;;;6.85
42119;BMP280;27783;42.782;23.274;2022-12-05T09:11:09;96506.34;;;6.88
42119;BMP280;27783;42.782;23.274;2022-12-05T09:13:35;96505.44;;;6.96
42119;BMP280;27783;42.782;23.274;2022-12-05T09:16:06;96524.88;;;6.95
42119;BMP280;27783;42.782;23.274;2022-12-05T09:18:32;96514.06;;;6.97
42119;BMP280;27783;42.782;23.274;2022-12-05T09:20:57;96511.53;;;7.00
42119;BMP280;27783;42.782;23.274;2022-12-05T09:23:23;96511.53;;;7.00
42119;BMP280;27783;42.782;23.274;2022-12-05T09:25:52;96502.22;;;7.02
42119;BMP280;27783;42.782;23.274;2022-12-05T09:28:22;96492.00;;;6.98
42119;BMP280;27783;42.782;23.274;2022-12-05T09:30:58;96491.25;;;6.97
42119;BMP280;27783;42.782;23.274;2022-12-05T09:33:26;96499.00;;;6.94
42119;BMP280;27783;42.782;23.274;2022-12-05T09:35:51;96491.56;;;6.96
42119;BMP280;27783;42.782;23.274;2022-12-05T09:38:17;96487.69;;;7.05
42119;BMP280;27783;42.782;23.274;2022-12-05T09:40:42;96494.63;;;6.98
42119;BMP280;27783;42.782;23.274;2022-12-05T09:43:25;96477.19;;;7.05
42119;BMP280;27783;42.782;23.274;2022-12-05T09:46:11;96482.13;;;7.06
42119;BMP280;27783;42.782;23.274;2022-12-05T09:48:38;96480.59;;;7.05
42119;BMP280;27783;42.782;23.274;2022-12-05T09:51:10;96469.09;;;7.10
42119;BMP280;27783;42.782;23.274;2022-12-05T09:53:39;96472.59;;;7.14
42119;BMP280;27783;42.782;23.274;2022-12-05T09:56:22;96469.38;;;7.20
42119;BMP280;27783;42.782;23.274;2022-12-05T09:59:00;96470.47;;;7.19
42119;BMP280;27783;42.782;23.274;2022-12-05T10:01:39;96472.75;;;7.20
42119;BMP280;27783;42.782;23.274;2022-12-05T10:15:26;96459.81;;;7.27
42119;BMP280;27783;42.782;23.274;2022-12-05T10:20:50;96455.56;;;7.38
42119;BMP280;27783;42.782;23.274;2022-12-05T10:23:23;96454.75;;;7.34
42119;BMP280;27783;42.782;23.274;2022-12-05T10:25:54;96452.03;;;7.31
42119;BMP280;27783;42.782;23.274;2022-12-05T10:28:36;96448.31;;;7.47
42119;BMP280;27783;42.782;23.274;2022-12-05T10:31:09;96449.81;;;7.48
42119;BMP280;27783;42.782;23.274;2022-12-05T10:33:43;96457.19;;;7.42
42119;BMP280;27783;42.782;23.274;2022-12-05T10:36:12;96448.16;;;7.40
42119;BMP280;27783;42.782;23.274;2022-12-05T10:38:39;96446.38;;;7.44
42119;BMP280;27783;42.782;23.274;2022-12-05T10:41:07;96449.22;;;7.54
42119;BMP280;27783;42.782;23.274;2022-12-05T10:43:35;96442.03;;;7.51
42119;BMP280;27783;42.782;23.274;2022-12-05T10:46:02;96442.63;;;7.45
42119;BMP280;27783;42.782;23.274;2022-12-05T10:48:29;96440.44;;;7.47
42119;BMP280;27783;42.782;23.274;2022-12-05T10:50:57;96435.59;;;7.48
42119;BMP280;27783;42.782;23.274;2022-12-05T10:53:24;96436.69;;;7.48
42119;BMP280;27783;42.782;23.274;2022-12-05T10:55:51;96427.91;;;7.55
42119;BMP280;27783;42.782;23.274;2022-12-05T10:58:19;96424.88;;;7.53
42119;BMP280;27783;42.782;23.274;2022-12-05T11:00:50;96427.13;;;7.55
42119;BMP280;27783;42.782;23.274;2022-12-05T11:03:25;96424.19;;;7.56
42119;BMP280;27783;42.782;23.274;2022-12-05T11:05:53;96423.22;;;7.64
42119;BMP280;27783;42.782;23.274;2022-12-05T11:08:25;96424.34;;;7.63
42119;BMP280;27783;42.782;23.274;2022-12-05T11:11:01;96415.03;;;7.65
42119;BMP280;27783;42.782;23.274;2022-12-05T11:13:27;96409.63;;;7.59
42119;BMP280;27783;42.782;23.274;2022-12-05T11:15:53;96411.78;;;7.72
42119;BMP280;27783;42.782;23.274;2022-12-05T11:20:50;96405.84;;;7.75
42119;BMP280;27783;42.782;23.274;2022-12-05T11:23:24;96406.88;;;7.70
42119;BMP280;27783;42.782;23.274;2022-12-05T11:25:50;96408.31;;;7.68
42119;BMP280;27783;42.782;23.274;2022-12-05T11:33:26;96397.75;;;7.65
42119;BMP280;27783;42.782;23.274;2022-12-05T11:35:54;96389.72;;;7.73
42119;BMP280;27783;42.782;23.274;2022-12-05T11:38:25;96385.84;;;7.67
42119;BMP280;27783;42.782;23.274;2022-12-05T11:44:11;96379.84;;;7.51
42119;BMP280;27783;42.782;23.274;2022-12-05T11:52:28;96372.28;;;7.65
42119;BMP280;27783;42.782;23.274;2022-12-05T11:55:15;96361.47;;;7.51
42119;BMP280;27783;42.782;23.274;2022-12-05T12:06:03;96354.56;;;7.44
42119;BMP280;27783;42.782;23.274;2022-12-05T12:08:41;96346.50;;;7.52
42119;BMP280;27783;42.782;23.274;2022-12-05T12:28:00;96348.50;;;7.40
42119;BMP280;27783;42.782;23.274;2022-12-05T12:30:37;96345.44;;;7.38
42119;BMP280;27783;42.782;23.274;2022-12-05T12:33:28;96338.75;;;7.40
42119;BMP280;27783;42.782;23.274;2022-12-05T12:44:34;96340.03;;;7.31
42119;BMP280;27783;42.782;23.274;2022-12-05T12:52:25;96333.44;;;7.37
42119;BMP280;27783;42.782;23.274;2022-12-05T12:54:57;96331.50;;;7.34
42119;BMP280;27783;42.782;23.274;2022-12-05T13:05:26;96326.13;;;7.46
42119;BMP280;27783;42.782;23.274;2022-12-05T13:08:05;96320.31;;;7.37
42119;BMP280;27783;42.782;23.274;2022-12-05T13:10:34;96324.03;;;7.36
42119;BMP280;27783;42.782;23.274;2022-12-05T13:13:02;96318.41;;;7.34
42119;BMP280;27783;42.782;23.274;2022-12-05T13:17:57;96316.63;;;7.23
42119;BMP280;27783;42.782;23.274;2022-12-05T13:20:27;96321.59;;;7.28
42119;BMP280;27783;42.782;23.274;2022-12-05T13:22:54;96325.50;;;7.18
42119;BMP280;27783;42.782;23.274;2022-12-05T13:25:23;96329.38;;;7.24
42119;BMP280;27783;42.782;23.274;2022-12-05T13:27:56;96327.03;;;7.19
42119;BMP280;27783;42.782;23.274;2022-12-05T13:30:23;96326.34;;;7.22
42119;BMP280;27783;42.782;23.274;2022-12-05T13:32:56;96324.09;;;7.21
42119;BMP280;27783;42.782;23.274;2022-12-05T13:35:30;96332.19;;;7.16
42119;BMP280;27783;42.782;23.274;2022-12-05T13:41:03;96343.97;;;7.07
42119;BMP280;27783;42.782;23.274;2022-12-05T13:43:50;96336.94;;;7.11
42119;BMP280;27783;42.782;23.274;2022-12-05T13:46:24;96326.03;;;7.09
42119;BMP280;27783;42.782;23.274;2022-12-05T13:48:58;96323.25;;;7.02
42119;BMP280;27783;42.782;23.274;2022-12-05T13:51:34;96324.78;;;7.03
42119;BMP280;27783;42.782;23.274;2022-12-05T13:54:11;96322.16;;;7.03
42119;BMP280;27783;42.782;23.274;2022-12-05T13:56:50;96328.94;;;7.04
42119;BMP280;27783;42.782;23.274;2022-12-05T14:07:46;96325.38;;;6.97
42119;BMP280;27783;42.782;23.274;2022-12-05T14:15:47;96337.19;;;7.06
42119;BMP280;27783;42.782;23.274;2022-12-05T14:21:13;96336.34;;;7.02
42119;BMP280;27783;42.782;23.274;2022-12-05T14:26:58;96333.91;;;6.94
42119;BMP280;27783;42.782;23.274;2022-12-05T14:32:09;96330.13;;;6.91
42119;BMP280;27783;42.782;23.274;2022-12-05T14:39:39;96338.63;;;6.88
42119;BMP280;27783;42.782;23.274;2022-12-05T14:42:15;96326.28;;;6.89
42119;BMP280;27783;42.782;23.274;2022-12-05T14:44:48;96328.84;;;6.85
42119;BMP280;27783;42.782;23.274;2022-12-05T14:47:18;96331.44;;;6.85
42119;BMP280;27783;42.782;23.274;2022-12-05T14:49:58;96336.38;;;6.87
42119;BMP280;27783;42.782;23.274;2022-12-05T14:52:28;96333.66;;;6.83
42119;BMP280;27783;42.782;23.274;2022-12-05T14:54:59;96335.19;;;6.84
42119;BMP280;27783;42.782;23.274;2022-12-05T14:57:26;96333.66;;;6.83
42119;BMP280;27783;42.782;23.274;2022-12-05T15:00:05;96339.91;;;6.79
42119;BMP280;27783;42.782;23.274;2022-12-05T15:02:35;96338.47;;;6.82
42119;BMP280;27783;42.782;23.274;2022-12-05T15:05:18;96339.56;;;6.81
42119;BMP280;27783;42.782;23.274;2022-12-05T15:07:45;96338.38;;;6.78
42119;BMP280;27783;42.782;23.274;2022-12-05T15:10:22;96340.34;;;6.81
42119;BMP280;27783;42.782;23.274;2022-12-05T15:12:57;96335.03;;;6.78
42119;BMP280;27783;42.782;23.274;2022-12-05T15:18:23;96335.34;;;6.76
42119;BMP280;27783;42.782;23.274;2022-12-05T15:21:01;96331.03;;;6.83
42119;BMP280;27783;42.782;23.274;2022-12-05T15:37:14;96333.13;;;6.78
42119;BMP280;27783;42.782;23.274;2022-12-05T15:40:00;96330.19;;;6.80
42119;BMP280;27783;42.782;23.274;2022-12-05T15:42:30;96331.28;;;6.79
42119;BMP280;27783;42.782;23.274;2022-12-05T15:50:36;96319.22;;;6.74
42119;BMP280;27783;42.782;23.274;2022-12-05T15:56:10;96327.47;;;6.76
42119;BMP280;27783;42.782;23.274;2022-12-05T15:58:37;96337.13;;;6.72
42119;BMP280;27783;42.782;23.274;2022-12-05T16:01:21;96335.69;;;6.75
42119;BMP280;27783;42.782;23.274;2022-12-05T16:08:48;96321.22;;;6.65
42119;BMP280;27783;42.782;23.274;2022-12-05T16:11:15;96324.69;;;6.69
42119;BMP280;27783;42.782;23.274;2022-12-05T16:13:46;96332.91;;;6.68
42119;BMP280;27783;42.782;23.274;2022-12-05T16:16:18;96330.94;;;6.65
42119;BMP280;27783;42.782;23.274;2022-12-05T16:18:58;96336.94;;;6.65
42119;BMP280;27783;42.782;23.274;2022-12-05T16:21:34;96338.16;;;6.68
42119;BMP280;27783;42.782;23.274;2022-12-05T16:24:05;96335.09;;;6.66
42119;BMP280;27783;42.782;23.274;2022-12-05T16:26:36;96330.88;;;6.62
42119;BMP280;27783;42.782;23.274;2022-12-05T16:29:02;96330.94;;;6.65
42119;BMP280;27783;42.782;23.274;2022-12-05T16:31:29;96323.75;;;6.62
42119;BMP280;27783;42.782;23.274;2022-12-05T16:34:05;96322.25;;;6.61
42119;BMP280;27783;42.782;23.274;2022-12-05T16:36:31;96324.88;;;6.61
42119;BMP280;27783;42.782;23.274;2022-12-05T16:39:05;96323.34;;;6.60
42119;BMP280;27783;42.782;23.274;2022-12-05T16:41:33;96325.56;;;6.58
42119;BMP280;27783;42.782;23.274;2022-12-05T16:44:00;96322.50;;;6.56
42119;BMP280;27783;42.782;23.274;2022-12-05T16:46:40;96317.94;;;6.53
42119;BMP280;27783;42.782;23.274;2022-12-05T16:49:19;96317.94;;;6.53
42119;BMP280;27783;42.782;23.274;2022-12-05T16:52:13;96322.41;;;6.53
42119;BMP280;27783;42.782;23.274;2022-12-05T16:54:44;96310.06;;;6.53
42119;BMP280;27783;42.782;23.274;2022-12-05T16:57:12;96312.69;;;6.53
42119;BMP280;27783;42.782;23.274;2022-12-05T16:59:38;96309.22;;;6.49
42119;BMP280;27783;42.782;23.274;2022-12-05T17:02:10;96312.28;;;6.51
42119;BMP280;27783;42.782;23.274;2022-12-05T17:04:36;96311.94;;;6.53
42119;BMP280;27783;42.782;23.274;2022-12-05T17:07:02;96311.59;;;6.54
42119;BMP280;27783;42.782;23.274;2022-12-05T17:09:28;96322.06;;;6.54
42119;BMP280;27783;42.782;23.274;2022-12-05T17:12:17;96323.94;;;6.54
42119;BMP280;27783;42.782;23.274;2022-12-05T17:14:45;96320.13;;;6.51
42119;BMP280;27783;42.782;23.274;2022-12-05T17:17:12;96323.84;;;6.50
42119;BMP280;27783;42.782;23.274;2022-12-05T17:19:39;96321.22;;;6.50
42119;BMP280;27783;42.782;23.274;2022-12-05T17:22:05;96317.53;;;6.51
42119;BMP280;27783;42.782;23.274;2022-12-05T17:24:30;96322.50;;;6.56
42119;BMP280;27783;42.782;23.274;2022-12-05T17:26:56;96323.16;;;6.53
42119;BMP280;27783;42.782;23.274;2022-12-05T17:29:21;96331.34;;;6.52